Terminal Aerodrome Forecast
Issued by NWS

Home | Current Version | Previous Version | Graphics & Text | Print | Product List | Glossary On
Versions: 1 2 3 4 5 6 7 8 9 10 11 12 13 14 15 16 17 18 19 20
000
FTUS43 KMPX 311801 CCA
TAFRWF
TAF COR
KRWF 311801Z 3118/0118 02008KT 6SM BR OVC008
     FM311900 05012KT P6SM OVC010
      TEMPO 3121/0101 SCT015
     FM010500 04012G20KT 4SM -SN BR OVC012
     FM010800 02013G22KT 2SM -SN BR OVC010
     FM011500 01013G22KT 5SM -SN BR OVC020=

USA.gov is the U.S. government's official web portal to all federal, state and local government web resources and services.